Homewood Airport

CJT8 · 曼尼托巴, 加拿大

使用的METAR站距离机场29 NM。
罗盘
风向 的 风向 340° Homewood Airport 8/26
风向 到 风: 16 kt, 阵阵 21 kt, 4 beaufort

5 kt

15 kt
改变
0 ft 2.000 4.000 6.000 8.000 10.000
Cloud Cloud Cloud Cloud Cloud Cloud
BKN 4.500
Cloud Cloud Cloud Cloud Cloud Cloud
BKN 10.000
METAR CYPG 271937Z 34016G21KT 12SM -SHRA BKN045TCU BKN100 15/04 A2993 RMK TCU5AC2 DENSITY ALT 1164FT VIS LWR NW SLP141

METAR Homewood Airport - CJT8

Homewood Airport是,加拿大中的小机场。 该机场位于纬度49,50974和经度-97,85033。 该机场有一条跑道: 8/26. 该机场的伪ICAO代码为CJT8。 机场在Winnipeg FIR中。

该航空气象观测是针对Portage La Prairie Airport在2024年5月27日 14:37, 当地时间进行的。

机场观察

风向为340°,速度为16 kt。 已测得21 kt的阵风。

可见度为12 mi。

有碎云 高耸的积云在4.500 ft的高度 和 碎云在10.000 ft的高度。 破损或更高的上限为4.500 ft。

当前天气为光 阵雨 雨。 温度和风寒是15 °C。 露点为4 °C,相对湿度为48%。 海平面上的气压为29,93 inHg (QNH)。

白天

今天,太阳从05:32升起,在21:24降落。 这适用于Homewood Airport,世界夏令时可能有所不同。 当地时间与世界标准时间之间的时差为-5 小时。 夏令时目前正在进行中。

公司介绍

我们没有关于这个机场的公司信息。

体会

到Vliegles.nl去找飞行课程,跳伞和其他飞行体验。 浏览页面,了解Homewood Airport附近所有可用的活动。 你也可以使用搜索功能来寻找你所在地附近的特定飞行课程、跳伞或其他飞行体验。

跑道

Id 标题 侧风 逆风 侧风 %
8/26 089°-269° 15-20 kt 5-7 kt 95 %

逆风成分最大的方向会被突出显示,并用于横风计算。 这并不一定意味着这个方向在使用。

乌云

4.500 ft BKN 碎云 高耸的积云
10.000 ft BKN 碎云

温度 & 天气

天气 光 阵雨 雨
温度 15 °C
露点 4 °C
相对湿度 48%
Kp-index 0 (0-9)

评论

SLP141海平面压力为29,95 inHg (29,95 inHg)
TCU5AC2 DENSITY ALT 1164FT VIS LWR NW

白天

日出
05:32
中午
13:30
日落
21:28 (6:22)

小工具

你想在你的网站上有一个关于Homewood Airport的当前航空天气(METAR)的小部件吗?

显示HTML代码
报告变更